地図

経路データ

SID SEASON NUMBER BASIN SUBBASIN NAME ISO_TIME NATURE LAT LON WMO_WIND WMO_PRES WMO_AGENCY TRACK_TYPE DIST2LAND LANDFALL IFLAG USA_AGENCY USA_ATCF_ID USA_LAT USA_LON USA_RECORD USA_STATUS USA_WIND USA_PRES USA_SSHS USA_R34_NE USA_R34_SE USA_R34_SW USA_R34_NW USA_R50_NE USA_R50_SE USA_R50_SW USA_R50_NW USA_R64_NE USA_R64_SE USA_R64_SW USA_R64_NW USA_POCI USA_ROCI USA_RMW USA_EYE TOKYO_LAT TOKYO_LON TOKYO_GRADE TOKYO_WIND TOKYO_PRES TOKYO_R50_DIR TOKYO_R50_LONG TOKYO_R50_SHORT TOKYO_R30_DIR TOKYO_R30_LONG TOKYO_R30_SHORT TOKYO_LAND CMA_LAT CMA_LON CMA_CAT CMA_WIND CMA_PRES HKO_LAT HKO_LON HKO_CAT HKO_WIND HKO_PRES NEWDELHI_LAT NEWDELHI_LON NEWDELHI_GRADE NEWDELHI_WIND NEWDELHI_PRES NEWDELHI_CI NEWDELHI_DP NEWDELHI_POCI REUNION_LAT REUNION_LON REUNION_TYPE REUNION_WIND REUNION_PRES REUNION_TNUM REUNION_CI REUNION_RMW REUNION_R34_NE REUNION_R34_SE REUNION_R34_SW REUNION_R34_NW REUNION_R50_NE REUNION_R50_SE REUNION_R50_SW REUNION_R50_NW REUNION_R64_NE REUNION_R64_SE REUNION_R64_SW REUNION_R64_NW BOM_LAT BOM_LON BOM_TYPE BOM_WIND BOM_PRES BOM_TNUM BOM_CI BOM_RMW BOM_R34_NE BOM_R34_SE BOM_R34_SW BOM_R34_NW BOM_R50_NE BOM_R50_SE BOM_R50_SW BOM_R50_NW BOM_R64_NE BOM_R64_SE BOM_R64_SW BOM_R64_NW BOM_ROCI BOM_POCI BOM_EYE BOM_POS_METHOD BOM_PRES_METHOD NADI_LAT NADI_LON NADI_CAT NADI_WIND NADI_PRES WELLINGTON_LAT WELLINGTON_LON WELLINGTON_WIND WELLINGTON_PRES DS824_LAT DS824_LON DS824_STAGE DS824_WIND DS824_PRES TD9636_LAT TD9636_LON TD9636_STAGE TD9636_WIND TD9636_PRES TD9635_LAT TD9635_LON TD9635_WIND TD9635_PRES TD9635_ROCI NEUMANN_LAT NEUMANN_LON NEUMANN_CLASS NEUMANN_WIND NEUMANN_PRES MLC_LAT MLC_LON MLC_CLASS MLC_WIND MLC_PRES USA_GUST BOM_GUST BOM_GUST_PER REUNION_GUST REUNION_GUST_PER USA_SEAHGT USA_SEARAD_NE USA_SEARAD_SE USA_SEARAD_SW USA_SEARAD_NW STORM_SPEED STORM_DIR
1955245N19329 1955 65 NA NA FLORA 1955-09-02 06:00:00 TS 19.0000 -31.1000 35 hurdat_atl main 1476 1476 O_____________ hurdat_atl AL061955 19.0000 -31.1000 TS 35 0 19 276
1955245N19329 1955 65 NA NA FLORA 1955-09-02 09:00:00 TS 19.1060 -32.0972 main 1578 1578 P_____________ AL061955 19.1060 -32.0972 TS 35 0 19 276
1955245N19329 1955 65 NA NA FLORA 1955-09-02 12:00:00 TS 19.2000 -33.1000 35 hurdat_atl main 1680 1680 O_____________ hurdat_atl AL061955 19.2000 -33.1000 TS 35 0 19 275
1955245N19329 1955 65 NA NA FLORA 1955-09-02 15:00:00 TS 19.2846 -34.1079 main 1782 1782 P_____________ AL061955 19.2846 -34.1079 TS 37 0 19 276
1955245N19329 1955 65 NA NA FLORA 1955-09-02 18:00:00 TS 19.4000 -35.1000 40 hurdat_atl main 1884 1884 O_____________ hurdat_atl AL061955 19.4000 -35.1000 TS 40 0 19 279
1955245N19329 1955 65 NA NA FLORA 1955-09-02 21:00:00 TS 19.5696 -36.0727 main 1985 1985 P_____________ AL061955 19.5696 -36.0727 TS 42 0 18 283
1955245N19329 1955 65 NA NA FLORA 1955-09-03 00:00:00 TS 19.8000 -37.0000 45 hurdat_atl main 2076 2076 O_____________ hurdat_atl AL061955 19.8000 -37.0000 TS 45 0 18 287
1955245N19329 1955 65 NA NA FLORA 1955-09-03 03:00:00 TS 20.0846 -37.8800 main 2166 2166 P_____________ AL061955 20.0846 -37.8800 TS 50 0 17 291
1955245N19329 1955 65 NA NA FLORA 1955-09-03 06:00:00 TS 20.4000 -38.7000 55 hurdat_atl main 2246 2239 O_____________ hurdat_atl AL061955 20.4000 -38.7000 TS 55 0 16 292
1955245N19329 1955 65 NA NA FLORA 1955-09-03 09:00:00 TS 20.6995 -39.4654 main 2236 2216 P_____________ AL061955 20.6995 -39.4654 TS 60 0 15 293
1955245N19329 1955 65 NA NA FLORA 1955-09-03 12:00:00 TS 21.0000 -40.2000 65 hurdat_atl main 2218 2197 O_____________ hurdat_atl AL061955 21.0000 -40.2000 HU 65 1 15 293
1955245N19329 1955 65 NA NA FLORA 1955-09-03 15:00:00 TS 21.2997 -40.9503 main 2194 2179 P_____________ AL061955 21.2997 -40.9503 HU 65 1 15 293
1955245N19329 1955 65 NA NA FLORA 1955-09-03 18:00:00 TS 21.6000 -41.7000 65 hurdat_atl main 2179 2164 O_____________ hurdat_atl AL061955 21.6000 -41.7000 HU 65 1 15 293
1955245N19329 1955 65 NA NA FLORA 1955-09-03 21:00:00 TS 21.8921 -42.4430 main 2168 2150 P_____________ AL061955 21.8921 -42.4430 HU 65 1 15 293
1955245N19329 1955 65 NA NA FLORA 1955-09-04 00:00:00 TS 22.2000 -43.2000 65 hurdat_atl main 2155 2144 O_____________ hurdat_atl AL061955 22.2000 -43.2000 HU 65 1 16 294
1955245N19329 1955 65 NA NA FLORA 1955-09-04 03:00:00 TS 22.5345 -43.9780 main 2145 2143 P_____________ AL061955 22.5345 -43.9780 HU 65 1 16 295
1955245N19329 1955 65 NA NA FLORA 1955-09-04 06:00:00 TS 22.9000 -44.8000 65 hurdat_atl main 2149 2143 O_____________ hurdat_atl AL061955 22.9000 -44.8000 HU 65 1 17 295
1955245N19329 1955 65 NA NA FLORA 1955-09-04 09:00:00 TS 23.2771 -45.6782 main 2136 2063 P_____________ AL061955 23.2771 -45.6782 HU 65 1 18 296
1955245N19329 1955 65 NA NA FLORA 1955-09-04 12:00:00 TS 23.7000 -46.6000 65 hurdat_atl main 2056 1978 O_____________ hurdat_atl AL061955 23.7000 -46.6000 HU 65 1 20 298
1955245N19329 1955 65 NA NA FLORA 1955-09-04 15:00:00 TS 24.1926 -47.5723 main 1971 1901 P_____________ AL061955 24.1926 -47.5723 HU 65 1 20 300
1955245N19329 1955 65 NA NA FLORA 1955-09-04 18:00:00 TS 24.7000 -48.5000 65 989 hurdat_atl main 1901 1840 O_____________ hurdat_atl AL061955 24.7000 -48.5000 HU 65 989 1 18 302
1955245N19329 1955 65 NA NA FLORA 1955-09-04 21:00:00 TS 25.1568 -49.2958 main 1844 1796 P_____________ AL061955 25.1568 -49.2958 HU 67 1 16 304
1955245N19329 1955 65 NA NA FLORA 1955-09-05 00:00:00 TS 25.6000 -50.0000 70 hurdat_atl main 1796 1760 O_____________ hurdat_atl AL061955 25.6000 -50.0000 HU 70 1 15 306
1955245N19329 1955 65 NA NA FLORA 1955-09-05 03:00:00 TS 26.0497 -50.6805 main 1751 1723 P_____________ AL061955 26.0497 -50.6805 HU 72 1 15 308
1955245N19329 1955 65 NA NA FLORA 1955-09-05 06:00:00 TS 26.5000 -51.3000 75 hurdat_atl main 1723 1702 O_____________ hurdat_atl AL061955 26.5000 -51.3000 HU 75 1 14 310
1955245N19329 1955 65 NA NA FLORA 1955-09-05 09:00:00 TS 26.9573 -51.8803 main 1700 1682 P_____________ AL061955 26.9573 -51.8803 HU 77 1 13 313
1955245N19329 1955 65 NA NA FLORA 1955-09-05 12:00:00 TS 27.4000 -52.4000 80 975 hurdat_atl main 1682 1668 O_____________ hurdat_atl AL061955 27.4000 -52.4000 HU 80 975 1 12 313
1955245N19329 1955 65 NA NA FLORA 1955-09-05 15:00:00 TS 27.7849 -52.8881 main 1668 1657 P_____________ AL061955 27.7849 -52.8881 HU 80 973 1 11 315
1955245N19329 1955 65 NA NA FLORA 1955-09-05 18:00:00 TS 28.2000 -53.3000 80 971 hurdat_atl main 1664 1662 O_____________ hurdat_atl AL061955 28.2000 -53.3000 HU 80 971 1 12 326
1955245N19329 1955 65 NA NA FLORA 1955-09-05 21:00:00 TS 28.7723 -53.6299 main 1684 1677 P_____________ AL061955 28.7723 -53.6299 HU 77 974 1 12 334
1955245N19329 1955 65 NA NA FLORA 1955-09-06 00:00:00 TS 29.3000 -53.9000 75 977 hurdat_atl main 1700 1700 O_____________ hurdat_atl AL061955 29.3000 -53.9000 HU 75 977 1 9 330
1955245N19329 1955 65 NA NA FLORA 1955-09-06 03:00:00 TS 29.5799 -54.1656 main 1702 1696 P_____________ AL061955 29.5799 -54.1656 HU 75 1 7 319
1955245N19329 1955 65 NA NA FLORA 1955-09-06 06:00:00 TS 29.8000 -54.4000 75 hurdat_atl main 1704 1704 O_____________ hurdat_atl AL061955 29.8000 -54.4000 HU 75 1 7 325
1955245N19329 1955 65 NA NA FLORA 1955-09-06 09:00:00 TS 30.1274 -54.6077 main 1715 1715 P_____________ AL061955 30.1274 -54.6077 HU 77 1 8 334
1955245N19329 1955 65 NA NA FLORA 1955-09-06 12:00:00 TS 30.5000 -54.8000 80 hurdat_atl main 1717 1669 O_____________ hurdat_atl AL061955 30.5000 -54.8000 HU 80 1 8 335
1955245N19329 1955 65 NA NA FLORA 1955-09-06 15:00:00 TS 30.8925 -55.0149 main 1669 1621 P_____________ AL061955 30.8925 -55.0149 HU 85 2 9 337
1955245N19329 1955 65 NA NA FLORA 1955-09-06 18:00:00 TS 31.3000 -55.2000 90 967 hurdat_atl main 1621 1578 O_____________ hurdat_atl AL061955 31.3000 -55.2000 HU 90 967 2 8 341
1955245N19329 1955 65 NA NA FLORA 1955-09-06 21:00:00 TS 31.6925 -55.3301 main 1578 1535 P_____________ AL061955 31.6925 -55.3301 HU 90 2 8 348
1955245N19329 1955 65 NA NA FLORA 1955-09-07 00:00:00 TS 32.1000 -55.4000 90 hurdat_atl main 1535 1496 O_____________ hurdat_atl AL061955 32.1000 -55.4000 HU 90 2 9 354
1955245N19329 1955 65 NA NA FLORA 1955-09-07 03:00:00 TS 32.5425 -55.4300 main 1496 1442 P_____________ AL061955 32.5425 -55.4300 HU 90 2 9 0
1955245N19329 1955 65 NA NA FLORA 1955-09-07 06:00:00 TS 33.0000 -55.4000 90 hurdat_atl main 1442 1403 O_____________ hurdat_atl AL061955 33.0000 -55.4000 HU 90 2 9 5
1955245N19329 1955 65 NA NA FLORA 1955-09-07 09:00:00 TS 33.4425 -55.3298 main 1403 1354 P_____________ AL061955 33.4425 -55.3298 HU 90 2 9 10
1955245N19329 1955 65 NA NA FLORA 1955-09-07 12:00:00 TS 33.9000 -55.2000 90 hurdat_atl main 1354 1315 O_____________ hurdat_atl AL061955 33.9000 -55.2000 HU 90 2 10 14
1955245N19329 1955 65 NA NA FLORA 1955-09-07 15:00:00 TS 34.3698 -55.0515 main 1305 1263 P_____________ AL061955 34.3698 -55.0515 HU 90 2 11 18
1955245N19329 1955 65 NA NA FLORA 1955-09-07 18:00:00 TS 34.9000 -54.8000 90 hurdat_atl main 1263 1217 O_____________ hurdat_atl AL061955 34.9000 -54.8000 HU 90 2 13 25
1955245N19329 1955 65 NA NA FLORA 1955-09-07 21:00:00 TS 35.5199 -54.4096 main 1217 1157 P_____________ AL061955 35.5199 -54.4096 HU 90 2 15 29
1955245N19329 1955 65 NA NA FLORA 1955-09-08 00:00:00 TS 36.2000 -53.9000 90 hurdat_atl main 1157 1090 O_____________ hurdat_atl AL061955 36.2000 -53.9000 HU 90 2 16 33
1955245N19329 1955 65 NA NA FLORA 1955-09-08 03:00:00 TS 36.8849 -53.3292 main 1079 1001 P_____________ AL061955 36.8849 -53.3292 HU 87 2 17 34
1955245N19329 1955 65 NA NA FLORA 1955-09-08 06:00:00 TS 37.6000 -52.7000 85 hurdat_atl main 1001 926 O_____________ hurdat_atl AL061955 37.6000 -52.7000 HU 85 2 18 34
1955245N19329 1955 65 NA NA FLORA 1955-09-08 09:00:00 TS 38.3342 -52.0853 main 927 846 P_____________ AL061955 38.3342 -52.0853 HU 85 2 18 34
1955245N19329 1955 65 NA NA FLORA 1955-09-08 12:00:00 TS 39.1000 -51.4000 85 hurdat_atl main 846 771 O_____________ hurdat_atl AL061955 39.1000 -51.4000 HU 85 2 19 35
1955245N19329 1955 65 NA NA FLORA 1955-09-08 15:00:00 TS 39.8981 -50.6519 main 771 710 P_____________ AL061955 39.8981 -50.6519 HU 82 1 21 39
1955245N19329 1955 65 NA NA FLORA 1955-09-08 18:00:00 TS 40.7000 -49.7000 80 975 hurdat_atl main 713 684 O_____________ hurdat_atl AL061955 40.7000 -49.7000 HU 80 975 1 23 47
1955245N19329 1955 65 NA NA FLORA 1955-09-08 21:00:00 TS 41.4350 -48.4440 main 692 683 P_____________ AL061955 41.4350 -48.4440 HU 77 975 1 25 53
1955245N19329 1955 65 NA NA FLORA 1955-09-09 00:00:00 TS 42.2000 -47.0000 75 hurdat_atl main 692 689 I_____________ hurdat_atl AL061955 42.2000 -47.0000 HU 75 975 1 26 52
1955245N19329 1955 65 NA NA FLORA 1955-09-09 03:00:00 TS 43.0546 -45.6613 main 704 704 P_____________ AL061955 43.0546 -45.6613 HU 72 975 1 28 51
1955245N19329 1955 65 NA NA FLORA 1955-09-09 06:00:00 ET 44.0000 -44.0000 70 976 hurdat_atl main 765 765 O_____________ hurdat_atl AL061955 44.0000 -44.0000 EX 70 976 -4 34 55
1955245N19329 1955 65 NA NA FLORA 1955-09-09 09:00:00 ET 44.9778 -41.7897 main 871 871 P_____________ AL061955 44.9778 -41.7897 EX 67 -4 41 61
1955245N19329 1955 65 NA NA FLORA 1955-09-09 12:00:00 ET 46.0000 -39.0000 65 hurdat_atl main 1043 1043 O_____________ hurdat_atl AL061955 46.0000 -39.0000 EX 65 -4 47 64
1955245N19329 1955 65 NA NA FLORA 1955-09-09 15:00:00 ET 47.0310 -35.6807 main 1268 1268 P_____________ AL061955 47.0310 -35.6807 EX 62 -4 52 67
1955245N19329 1955 65 NA NA FLORA 1955-09-09 18:00:00 ET 48.0000 -32.0000 60 hurdat_atl main 1517 O_____________ hurdat_atl AL061955 48.0000 -32.0000 EX 60 -4 53 69

IBTrACS Databaseについて

本データベースは、米国NOAAが公開する1842年以降の世界の熱帯低気圧のベストトラックデータアーカイブInternational Best Track Archive for Climate Stewardship (IBTrACS)を、ウェブで閲覧しやすい形式に変換したものです。

最終更新日:2021-10-21